createdAt,value
2024-05-09T00:00:46.240Z,0.00
2024-05-09T00:01:47.223Z,0.00
2024-05-09T00:02:47.319Z,0.00
2024-05-09T00:03:46.546Z,0.00
2024-05-09T00:04:46.640Z,0.00
2024-05-09T00:05:46.754Z,0.00
2024-05-09T00:06:46.844Z,0.00
2024-05-09T00:07:47.919Z,0.00
2024-05-09T00:08:47.030Z,0.00
2024-05-09T00:09:47.140Z,0.00
2024-05-09T00:10:47.335Z,0.00
2024-05-09T00:11:48.385Z,0.00
2024-05-09T00:12:48.452Z,0.00
2024-05-09T00:13:47.744Z,0.00
2024-05-09T00:14:47.769Z,0.00
2024-05-09T00:15:48.852Z,0.00
2024-05-09T00:16:48.020Z,0.00
2024-05-09T00:17:49.280Z,0.00
2024-05-09T00:18:48.320Z,0.00
2024-05-09T00:19:48.398Z,0.00
2024-05-09T00:20:48.497Z,0.00
2024-05-09T00:21:48.556Z,0.00
2024-05-09T00:22:48.871Z,0.00
2024-05-09T00:23:48.834Z,0.00
2024-05-09T00:24:49.002Z,0.00
2024-05-09T00:25:49.119Z,0.00
2024-05-09T00:26:49.199Z,0.00
2024-05-09T00:27:49.538Z,0.00
2024-05-09T00:30:07.029Z,0.00
2024-05-09T00:31:05.295Z,0.00
2024-05-09T00:32:05.349Z,0.00
2024-05-09T00:33:07.781Z,0.00
2024-05-09T00:34:05.893Z,0.00
2024-05-09T00:35:05.689Z,0.00
2024-05-09T00:36:05.763Z,0.00
2024-05-09T00:37:05.921Z,0.00
2024-05-09T00:38:06.331Z,0.00
2024-05-09T00:39:06.123Z,0.00
2024-05-09T00:40:09.547Z,0.00
2024-05-09T00:41:07.536Z,0.00
2024-05-09T00:42:06.509Z,0.00
2024-05-09T00:43:06.802Z,0.00
2024-05-09T00:44:06.790Z,0.00
2024-05-09T00:45:06.865Z,0.00
2024-05-09T00:46:07.033Z,0.00
2024-05-09T00:47:07.445Z,0.00
2024-05-09T00:48:08.790Z,0.00
2024-05-09T00:49:07.448Z,0.00
2024-05-09T00:50:12.652Z,0.00
2024-05-09T00:51:08.689Z,0.00
2024-05-09T00:52:07.720Z,0.00
2024-05-09T00:53:07.989Z,0.00
2024-05-09T00:54:07.933Z,0.00
2024-05-09T00:55:08.102Z,0.00
2024-05-09T00:56:08.300Z,0.00
2024-05-09T00:57:08.401Z,0.00
2024-05-09T00:58:08.565Z,0.00
2024-05-09T00:59:08.721Z,0.00
2024-05-09T01:00:18.380Z,0.00
2024-05-09T01:01:16.118Z,0.00
2024-05-09T01:02:09.318Z,0.00
2024-05-09T01:03:11.501Z,0.00
2024-05-09T01:04:09.766Z,0.00
2024-05-09T01:05:09.872Z,0.00
2024-05-09T01:06:17.583Z,0.00
2024-05-09T01:07:09.686Z,0.00
2024-05-09T01:08:10.255Z,0.00
2024-05-09T01:09:09.895Z,0.00
2024-05-09T01:10:14.327Z,0.00
2024-05-09T01:11:11.369Z,0.00
2024-05-09T01:12:10.615Z,0.00
2024-05-09T01:13:10.346Z,0.00
2024-05-09T01:14:10.657Z,0.00
2024-05-09T01:15:10.619Z,0.00
2024-05-09T01:16:11.733Z,0.00
2024-05-09T01:17:10.916Z,0.00
2024-05-09T01:18:12.368Z,0.00
2024-05-09T01:19:11.369Z,0.00
2024-05-09T01:20:19.724Z,0.00
2024-05-09T01:21:12.522Z,0.00
2024-05-09T01:22:11.646Z,0.00
2024-05-09T01:23:12.132Z,0.00
2024-05-09T01:24:11.738Z,0.00
2024-05-09T01:25:12.792Z,0.00
2024-05-09T01:26:12.053Z,0.00
2024-05-09T01:27:12.077Z,0.00
2024-05-09T01:28:12.222Z,0.00
2024-05-09T01:29:12.517Z,0.00
2024-05-09T01:30:17.310Z,0.00
2024-05-09T01:31:13.621Z,0.00
2024-05-09T01:32:12.853Z,0.00
2024-05-09T01:33:13.551Z,0.00
2024-05-09T01:34:13.014Z,0.00
2024-05-09T01:35:14.196Z,0.00
2024-05-09T01:36:13.353Z,0.00
2024-05-09T01:37:13.440Z,0.00
2024-05-09T01:38:14.099Z,0.00
2024-05-09T01:39:13.662Z,0.00
2024-05-09T01:40:18.556Z,0.00
2024-05-09T01:41:14.996Z,0.00
2024-05-09T01:42:15.021Z,0.00
2024-05-09T01:43:14.202Z,0.00
2024-05-09T01:44:14.300Z,0.00
2024-05-09T01:45:14.412Z,0.00
2024-05-09T01:46:14.509Z,0.00
2024-05-09T01:47:14.863Z,0.00
2024-05-09T01:48:15.982Z,0.00
2024-05-09T01:49:15.086Z,0.00
2024-05-09T01:51:15.309Z,0.00
2024-05-09T01:52:15.311Z,0.00
2024-05-09T01:53:15.639Z,0.00
2024-05-09T01:54:15.605Z,0.00
2024-05-09T01:55:16.639Z,0.00
2024-05-09T01:56:15.857Z,0.00
2024-05-09T01:57:15.964Z,0.00
2024-05-09T01:58:16.096Z,0.00
2024-05-09T01:59:16.225Z,0.00
2024-05-09T02:00:22.261Z,0.00
2024-05-09T02:01:17.613Z,0.00
2024-05-09T02:02:16.731Z,0.00
2024-05-09T02:03:17.903Z,0.00
2024-05-09T02:04:16.966Z,0.00
2024-05-09T02:05:17.182Z,0.00
2024-05-09T02:06:17.086Z,0.00
2024-05-09T02:07:17.155Z,0.00
2024-05-09T02:08:18.063Z,0.00
2024-05-09T02:09:17.420Z,0.00
2024-05-09T02:10:23.480Z,0.00
2024-05-09T02:11:18.754Z,0.00
2024-05-09T02:12:17.998Z,0.00
2024-05-09T02:13:17.945Z,0.00
2024-05-09T02:14:18.124Z,0.00
2024-05-09T02:15:18.175Z,0.00
2024-05-09T02:16:18.280Z,0.00
2024-05-09T02:17:18.539Z,0.00
2024-05-09T02:18:18.626Z,0.00
2024-05-09T02:19:18.847Z,0.00
2024-05-09T02:20:27.447Z,0.00
2024-05-09T02:21:19.915Z,0.00
2024-05-09T02:22:19.011Z,0.00
2024-05-09T02:23:19.189Z,0.00
2024-05-09T02:24:19.210Z,0.00
2024-05-09T02:25:20.323Z,0.00
2024-05-09T02:26:19.510Z,0.00
2024-05-09T02:27:19.610Z,0.00
2024-05-09T02:28:19.695Z,0.00
2024-05-09T02:29:19.912Z,0.00
2024-05-09T02:30:29.938Z,0.00
2024-05-09T02:31:21.216Z,0.00
2024-05-09T02:32:20.343Z,0.00
2024-05-09T02:33:20.557Z,0.00
2024-05-09T02:34:20.580Z,0.00
2024-05-09T02:35:21.707Z,0.00
2024-05-09T02:36:20.774Z,0.00
2024-05-09T02:37:20.885Z,0.00
2024-05-09T02:38:21.199Z,0.00
2024-05-09T02:39:21.192Z,0.00
2024-05-09T02:40:28.934Z,0.00
2024-05-09T02:41:22.616Z,0.00
2024-05-09T02:42:21.644Z,0.00
2024-05-09T02:43:21.730Z,0.00
2024-05-09T02:44:21.895Z,0.00
2024-05-09T02:45:22.935Z,0.00
2024-05-09T02:46:22.135Z,0.00
2024-05-09T02:47:22.381Z,0.00
2024-05-09T02:48:22.619Z,0.00
2024-05-09T02:49:22.640Z,0.00
2024-05-09T02:51:38.244Z,0.00
2024-05-09T02:52:38.385Z,0.00
2024-05-09T02:53:38.606Z,0.00
2024-05-09T02:54:38.700Z,0.00
2024-05-09T02:55:38.932Z,0.00
2024-05-09T02:56:38.981Z,0.00
2024-05-09T02:57:39.038Z,0.00
2024-05-09T02:58:39.215Z,0.00
2024-05-09T02:59:39.323Z,0.00
2024-05-09T03:00:41.822Z,0.00
2024-05-09T03:01:39.656Z,0.00
2024-05-09T03:02:39.809Z,0.00
2024-05-09T03:03:40.126Z,0.00
2024-05-09T03:04:40.174Z,0.00
2024-05-09T03:05:40.519Z,0.00
2024-05-09T03:06:40.243Z,0.00
2024-05-09T03:07:40.352Z,0.00
2024-05-09T03:08:40.477Z,0.00
2024-05-09T03:09:40.572Z,0.00
2024-05-09T03:10:40.763Z,0.00
2024-05-09T03:11:41.008Z,0.00
2024-05-09T03:12:41.081Z,0.00
2024-05-09T03:13:41.192Z,0.00
2024-05-09T03:14:41.349Z,0.00
2024-05-09T03:15:41.445Z,0.00
2024-05-09T03:16:41.556Z,0.00
2024-05-09T03:17:41.915Z,0.00
2024-05-09T03:18:41.889Z,0.00
2024-05-09T03:19:41.914Z,0.00
2024-05-09T03:20:42.085Z,0.00
2024-05-09T03:21:42.121Z,0.00
2024-05-09T03:22:42.427Z,0.00
2024-05-09T03:23:42.468Z,0.00
2024-05-09T03:24:42.558Z,0.00
2024-05-09T03:25:42.723Z,0.00
2024-05-09T03:26:42.824Z,0.00
2024-05-09T03:27:42.979Z,0.00
2024-05-09T03:28:43.111Z,0.00
2024-05-09T03:29:43.196Z,0.00
2024-05-09T03:30:43.610Z,0.00
2024-05-09T03:31:43.486Z,0.00
2024-05-09T03:32:43.805Z,0.00
2024-05-09T03:33:43.868Z,0.00
2024-05-09T03:34:43.858Z,0.00
2024-05-09T03:35:44.048Z,0.00
2024-05-09T03:36:44.116Z,0.00
2024-05-09T03:37:44.260Z,0.00
2024-05-09T03:38:44.434Z,0.00
2024-05-09T03:39:44.538Z,0.00
2024-05-09T03:40:45.678Z,0.00
2024-05-09T03:41:44.837Z,0.00
2024-05-09T03:42:44.896Z,0.00
2024-05-09T03:43:45.063Z,0.00
2024-05-09T03:44:45.242Z,0.00
2024-05-09T03:45:45.354Z,0.00
2024-05-09T03:46:45.525Z,0.00
2024-05-09T03:47:45.904Z,0.00
2024-05-09T03:48:45.834Z,0.00
2024-05-09T03:49:45.915Z,0.00
2024-05-09T03:50:46.088Z,0.00
2024-05-09T03:51:46.146Z,0.00
2024-05-09T03:52:46.428Z,0.00
2024-05-09T03:53:46.434Z,0.00
2024-05-09T03:54:46.524Z,0.00
2024-05-09T03:55:47.752Z,0.00
2024-05-09T03:56:46.810Z,0.00
2024-05-09T03:57:46.959Z,0.00
2024-05-09T03:58:47.178Z,0.00
2024-05-09T03:59:47.232Z,0.00
2024-05-09T04:00:47.447Z,0.00
2024-05-09T04:01:47.710Z,0.00
2024-05-09T04:02:47.777Z,0.00
2024-05-09T04:03:47.876Z,0.00
2024-05-09T04:04:47.998Z,0.00
2024-05-09T04:05:48.112Z,0.00
2024-05-09T04:06:48.164Z,0.00
2024-05-09T04:07:48.345Z,0.00
2024-05-09T04:08:48.465Z,0.00
2024-05-09T04:09:48.589Z,0.00
2024-05-09T04:10:49.800Z,0.00
2024-05-09T04:11:49.025Z,0.00
2024-05-09T04:12:49.030Z,0.00
2024-05-09T04:13:49.159Z,0.00
2024-05-09T04:14:50.206Z,0.00
2024-05-09T04:15:49.389Z,0.00
2024-05-09T04:16:49.566Z,0.00
2024-05-09T04:17:49.832Z,0.00
2024-05-09T04:18:49.959Z,0.00
2024-05-09T04:19:49.991Z,0.00
2024-05-09T04:20:51.132Z,0.00
2024-05-09T04:21:50.235Z,0.00
2024-05-09T04:22:50.383Z,0.00
2024-05-09T04:23:50.549Z,0.00
2024-05-09T04:24:50.610Z,0.00
2024-05-09T04:25:51.827Z,0.00
2024-05-09T04:26:50.885Z,0.00
2024-05-09T04:27:51.017Z,0.00
2024-05-09T04:28:51.183Z,0.00
2024-05-09T04:29:51.320Z,0.00
2024-05-09T04:30:51.486Z,0.00
2024-05-09T04:31:51.720Z,0.00
2024-05-09T04:32:51.873Z,0.00
2024-05-09T04:33:52.074Z,0.00
2024-05-09T04:34:52.001Z,0.00
2024-05-09T04:35:53.099Z,0.00
2024-05-09T04:36:52.237Z,0.00
2024-05-09T04:37:52.473Z,0.00
2024-05-09T04:50:17.925Z,5.62
2024-05-09T04:51:35.036Z,5.62
2024-05-09T04:52:13.170Z,5.62
2024-05-09T04:53:14.378Z,5.62
2024-05-09T04:54:25.736Z,5.62
2024-05-09T04:55:14.553Z,5.62
2024-05-09T04:56:14.673Z,5.62
2024-05-09T04:57:13.851Z,5.62
2024-05-09T04:58:13.984Z,5.62
2024-05-09T04:59:14.104Z,5.62
2024-05-09T05:00:18.072Z,5.62
2024-05-09T05:01:15.443Z,5.62
2024-05-09T05:02:14.559Z,5.62
2024-05-09T05:03:16.082Z,5.62
2024-05-09T05:04:14.806Z,5.62
2024-05-09T05:05:15.034Z,5.62
2024-05-09T05:06:15.027Z,5.62
2024-05-09T05:07:15.186Z,5.62
2024-05-09T05:08:16.009Z,5.62
2024-05-09T05:09:15.487Z,5.62
2024-05-09T05:10:21.583Z,5.62
2024-05-09T05:11:16.932Z,5.62
2024-05-09T05:12:16.025Z,5.62
2024-05-09T05:13:15.981Z,5.62
2024-05-09T05:14:16.176Z,5.62
2024-05-09T05:15:16.241Z,5.62
2024-05-09T05:16:16.420Z,5.62
2024-05-09T05:17:17.509Z,5.62
2024-05-09T05:18:17.317Z,5.62
2024-05-09T05:19:17.736Z,5.62
2024-05-09T05:20:24.509Z,5.62
2024-05-09T05:21:18.278Z,5.62
2024-05-09T05:22:17.212Z,5.62
2024-05-09T05:23:17.396Z,5.62
2024-05-09T05:24:17.513Z,5.62
2024-05-09T05:25:17.663Z,5.62
2024-05-09T05:26:17.853Z,5.62
2024-05-09T05:27:17.909Z,5.62
2024-05-09T05:28:18.072Z,5.62
2024-05-09T05:29:20.640Z,5.62
2024-05-09T05:30:24.945Z,5.62
2024-05-09T05:31:19.490Z,5.62
2024-05-09T05:32:18.688Z,5.62
2024-05-09T05:33:19.673Z,5.62
2024-05-09T05:34:18.874Z,5.62
2024-05-09T05:35:19.031Z,5.62
2024-05-09T05:36:19.167Z,5.62
2024-05-09T05:37:19.263Z,5.62
2024-05-09T05:38:21.954Z,5.62
2024-05-09T05:39:19.521Z,5.62
2024-05-09T05:40:28.157Z,5.62
2024-05-09T05:41:20.821Z,5.62
2024-05-09T05:42:19.917Z,5.62
2024-05-09T05:43:20.054Z,5.62
2024-05-09T05:44:20.270Z,5.62
2024-05-09T05:45:20.347Z,5.62
2024-05-09T05:46:20.530Z,5.62
2024-05-09T05:47:20.717Z,11.25
2024-05-09T05:48:20.871Z,11.25
2024-05-09T05:49:21.084Z,11.25
2024-05-09T05:50:27.917Z,11.25
2024-05-09T05:51:22.259Z,11.25
2024-05-09T05:52:21.278Z,11.25
2024-05-09T05:53:21.379Z,11.25
2024-05-09T05:54:21.524Z,11.25
2024-05-09T05:55:21.646Z,11.25
2024-05-09T05:56:21.908Z,16.88
2024-05-09T05:57:21.934Z,16.88
2024-05-09T05:58:22.077Z,16.88
2024-05-09T05:59:22.288Z,16.88
2024-05-09T06:00:29.754Z,16.88
2024-05-09T06:01:23.485Z,16.88
2024-05-09T06:02:22.674Z,16.88
2024-05-09T06:03:22.812Z,16.88
2024-05-09T06:04:22.895Z,16.88
2024-05-09T06:05:24.296Z,16.88
2024-05-09T06:06:24.101Z,16.88
2024-05-09T06:07:23.263Z,16.88
2024-05-09T06:08:24.693Z,22.50
2024-05-09T06:09:23.530Z,22.50
2024-05-09T06:10:29.649Z,22.50
2024-05-09T06:11:24.953Z,22.50
2024-05-09T06:12:24.056Z,22.50
2024-05-09T06:13:24.111Z,22.50
2024-05-09T06:14:24.351Z,22.50
2024-05-09T06:15:24.338Z,22.50
2024-05-09T06:16:24.597Z,22.50
2024-05-09T06:17:24.843Z,22.50
2024-05-09T06:18:25.069Z,22.50
2024-05-09T06:19:25.209Z,22.50
2024-05-09T06:20:34.546Z,22.50
2024-05-09T06:21:26.334Z,22.50
2024-05-09T06:22:25.308Z,22.50
2024-05-09T06:23:25.488Z,22.50
2024-05-09T06:24:25.584Z,22.50
2024-05-09T06:25:25.738Z,22.50
2024-05-09T06:26:25.976Z,22.50
2024-05-09T06:27:26.030Z,22.50
2024-05-09T06:28:26.147Z,22.50
2024-05-09T06:29:26.351Z,22.50
2024-05-09T06:30:35.275Z,22.50
2024-05-09T06:31:28.571Z,22.50
2024-05-09T06:32:26.969Z,22.50
2024-05-09T06:33:27.064Z,22.50
2024-05-09T06:34:27.227Z,22.50
2024-05-09T06:35:27.186Z,22.50
2024-05-09T06:36:27.346Z,28.12
2024-05-09T06:37:27.407Z,28.12
2024-05-09T06:38:27.709Z,28.12
2024-05-09T06:39:27.666Z,28.12
2024-05-09T06:40:36.280Z,28.12
2024-05-09T06:41:29.084Z,28.12
2024-05-09T06:42:28.027Z,22.50
2024-05-09T06:43:28.214Z,28.12
2024-05-09T06:44:28.459Z,28.12
2024-05-09T06:45:28.518Z,28.12
2024-05-09T06:47:44.253Z,28.12
2024-05-09T06:48:44.523Z,28.12
2024-05-09T06:49:44.451Z,28.12
2024-05-09T06:50:44.569Z,28.12
2024-05-09T06:51:44.640Z,28.12
2024-05-09T06:52:44.801Z,28.12
2024-05-09T06:53:44.933Z,28.12
2024-05-09T06:54:45.073Z,28.12
2024-05-09T06:55:45.299Z,28.12
2024-05-09T06:56:45.399Z,28.12
2024-05-09T06:57:45.428Z,28.12
2024-05-09T06:58:45.642Z,28.12
2024-05-09T06:59:45.675Z,28.12
2024-05-09T07:00:45.908Z,28.12
2024-05-09T07:01:46.032Z,28.12
2024-05-09T07:02:46.329Z,28.12
2024-05-09T07:03:46.403Z,28.12
2024-05-09T07:04:46.699Z,28.12
2024-05-09T07:05:47.813Z,28.12
2024-05-09T07:06:46.691Z,28.12
2024-05-09T07:07:46.878Z,28.12
2024-05-09T07:08:48.606Z,28.12
2024-05-09T07:09:47.133Z,28.12
2024-05-09T07:10:47.512Z,33.75
2024-05-09T07:11:47.551Z,33.75
2024-05-09T07:12:47.528Z,33.75
2024-05-09T07:13:47.685Z,28.12
2024-05-09T07:14:47.885Z,33.75
2024-05-09T07:15:47.945Z,28.12
2024-05-09T07:16:48.186Z,28.12
2024-05-09T07:17:48.467Z,33.75
2024-05-09T07:18:48.583Z,33.75
2024-05-09T07:19:48.684Z,33.75
2024-05-09T07:20:49.719Z,33.75
2024-05-09T07:21:48.772Z,33.75
2024-05-09T07:22:48.987Z,33.75
2024-05-09T07:23:49.309Z,33.75
2024-05-09T07:24:49.177Z,33.75
2024-05-09T07:25:49.447Z,28.12
2024-05-09T07:26:49.526Z,28.12
2024-05-09T07:27:49.571Z,28.12
2024-05-09T07:28:49.762Z,33.75
2024-05-09T07:29:49.918Z,33.75
2024-05-09T07:30:50.397Z,33.75
2024-05-09T07:31:50.176Z,33.75
2024-05-09T07:32:50.439Z,33.75
2024-05-09T07:33:50.424Z,33.75
2024-05-09T07:34:50.575Z,33.75
2024-05-09T07:35:50.712Z,28.12
2024-05-09T07:36:50.811Z,28.12
2024-05-09T07:37:50.902Z,28.12
2024-05-09T07:38:51.039Z,28.12
2024-05-09T07:39:51.147Z,33.75
2024-05-09T07:40:51.335Z,33.75
2024-05-09T07:41:52.397Z,33.75
2024-05-09T07:42:51.573Z,33.75
2024-05-09T07:43:51.766Z,33.75
2024-05-09T07:44:51.819Z,33.75
2024-05-09T07:45:54.574Z,33.75
2024-05-09T07:48:13.605Z,33.75
2024-05-09T07:49:43.608Z,33.75
2024-05-09T07:51:32.817Z,33.75
2024-05-09T07:52:37.333Z,33.75
2024-05-09T07:53:21.647Z,33.75
2024-05-09T07:53:35.652Z,33.75
2024-05-09T07:53:57.092Z,33.75
2024-05-09T07:54:54.251Z,33.75
2024-05-09T07:55:53.568Z,33.75
2024-05-09T07:56:53.660Z,33.75
2024-05-09T07:57:53.584Z,33.75
2024-05-09T07:58:54.117Z,33.75
2024-05-09T07:59:53.880Z,33.75
2024-05-09T08:00:54.050Z,28.12
2024-05-09T08:01:54.128Z,33.75
2024-05-09T08:02:54.256Z,33.75
2024-05-09T08:03:54.868Z,33.75
2024-05-09T08:04:54.664Z,33.75
2024-05-09T08:05:54.714Z,28.12
2024-05-09T08:06:54.817Z,28.12
2024-05-09T08:07:54.880Z,28.12
2024-05-09T08:08:55.341Z,28.12
2024-05-09T08:09:55.172Z,28.12
2024-05-09T08:10:55.359Z,28.12
2024-05-09T08:11:55.457Z,28.12
2024-05-09T08:12:55.591Z,28.12
2024-05-09T08:13:55.738Z,28.12
2024-05-09T08:14:55.837Z,28.12
2024-05-09T08:15:56.185Z,28.12
2024-05-09T08:16:56.168Z,28.12
2024-05-09T08:17:56.593Z,28.12
2024-05-09T08:18:56.570Z,28.12
2024-05-09T08:19:56.516Z,28.12
2024-05-09T08:20:56.649Z,28.12
2024-05-09T08:21:56.827Z,28.12
2024-05-09T08:22:56.925Z,28.12
2024-05-09T08:23:57.025Z,28.12
2024-05-09T08:24:57.192Z,28.12
2024-05-09T08:25:57.282Z,28.12
2024-05-09T08:26:57.521Z,28.12
2024-05-09T08:27:57.570Z,28.12
2024-05-09T08:28:57.669Z,28.12
2024-05-09T08:29:57.816Z,28.12
2024-05-09T08:30:58.072Z,28.12
2024-05-09T08:31:58.219Z,28.12
2024-05-09T08:32:58.247Z,28.12
2024-05-09T08:33:58.487Z,28.12
2024-05-09T08:34:58.516Z,28.12
2024-05-09T08:35:58.568Z,28.12
2024-05-09T08:37:03.738Z,28.12
2024-05-09T08:37:59.994Z,28.12
2024-05-09T08:38:58.954Z,28.12
2024-05-09T08:39:59.185Z,28.12
2024-05-09T08:40:59.253Z,28.12
2024-05-09T08:41:59.354Z,28.12
2024-05-09T08:42:59.532Z,28.12
2024-05-09T08:43:59.643Z,28.12
2024-05-09T08:44:59.791Z,28.12
2024-05-09T08:45:59.961Z,28.12
2024-05-09T08:47:00.053Z,28.12
2024-05-09T08:48:00.405Z,28.12
2024-05-09T08:49:00.579Z,28.12
2024-05-09T08:50:00.571Z,28.12
2024-05-09T08:51:00.563Z,28.12
2024-05-09T08:52:00.815Z,28.12
2024-05-09T08:53:00.834Z,28.12
2024-05-09T08:54:00.972Z,28.12
2024-05-09T08:55:01.215Z,28.12
2024-05-09T08:56:01.292Z,28.12
2024-05-09T08:57:01.428Z,28.12
2024-05-09T08:58:01.638Z,28.12
2024-05-09T08:59:01.670Z,28.12
2024-05-09T09:00:01.814Z,28.12
2024-05-09T09:01:02.012Z,28.12
2024-05-09T09:02:02.164Z,28.12
2024-05-09T09:03:02.304Z,28.12
2024-05-09T09:04:02.498Z,28.12
2024-05-09T09:05:02.598Z,28.12
2024-05-09T09:06:02.622Z,28.12
2024-05-09T09:07:03.698Z,28.12
2024-05-09T09:08:02.927Z,28.12
2024-05-09T09:09:03.045Z,28.12
2024-05-09T09:10:04.026Z,28.12
2024-05-09T09:11:03.258Z,28.12
2024-05-09T09:12:03.401Z,28.12
2024-05-09T09:13:03.582Z,28.12
2024-05-09T09:14:03.644Z,28.12
2024-05-09T09:15:03.759Z,28.12
2024-05-09T09:16:04.167Z,28.12
2024-05-09T09:17:04.161Z,28.12
2024-05-09T09:18:04.287Z,28.12
2024-05-09T09:19:04.595Z,28.12
2024-05-09T09:20:05.408Z,28.12
2024-05-09T09:21:04.525Z,28.12
2024-05-09T09:22:04.762Z,28.12
2024-05-09T09:23:05.006Z,28.12
2024-05-09T09:24:06.471Z,28.12
2024-05-09T09:25:05.210Z,28.12
2024-05-09T09:26:05.235Z,28.12
2024-05-09T09:27:05.399Z,28.12
2024-05-09T09:28:05.624Z,28.12
2024-05-09T09:29:05.587Z,28.12
2024-05-09T09:30:08.939Z,28.12
2024-05-09T09:31:06.915Z,28.12
2024-05-09T09:32:06.046Z,22.50
2024-05-09T09:33:06.619Z,22.50
2024-05-09T09:34:06.412Z,22.50
2024-05-09T09:35:06.392Z,22.50
2024-05-09T09:36:08.333Z,28.12
2024-05-09T09:37:06.714Z,28.12
2024-05-09T09:38:06.766Z,28.12
2024-05-09T09:39:06.892Z,28.12
2024-05-09T09:40:07.189Z,28.12
2024-05-09T09:41:07.263Z,28.12
2024-05-09T09:42:07.333Z,28.12
2024-05-09T09:43:07.684Z,28.12
2024-05-09T09:44:07.537Z,28.12
2024-05-09T09:45:07.671Z,28.12
2024-05-09T09:46:09.737Z,28.12
2024-05-09T09:47:08.039Z,28.12
2024-05-09T09:48:08.140Z,28.12
2024-05-09T09:49:08.242Z,28.12
2024-05-09T09:50:14.235Z,28.12
2024-05-09T09:51:09.444Z,28.12
2024-05-09T09:52:11.084Z,28.12
2024-05-09T09:53:08.845Z,28.12
2024-05-09T09:54:08.924Z,28.12
2024-05-09T09:56:24.647Z,28.12
2024-05-09T09:57:24.769Z,28.12
2024-05-09T09:58:25.101Z,28.12
2024-05-09T09:59:25.055Z,28.12
2024-05-09T10:00:30.639Z,28.12
2024-05-09T10:01:26.393Z,28.12
2024-05-09T10:02:25.602Z,28.12
2024-05-09T10:03:25.788Z,28.12
2024-05-09T10:04:26.002Z,33.75
2024-05-09T10:05:26.346Z,33.75
2024-05-09T10:06:26.013Z,39.38
2024-05-09T10:07:26.166Z,39.38
2024-05-09T10:08:26.302Z,45.00
2024-05-09T10:09:26.454Z,39.38
2024-05-09T10:10:32.384Z,39.38
2024-05-09T10:11:27.692Z,33.75
2024-05-09T10:12:26.843Z,33.75
2024-05-09T10:13:27.049Z,28.12
2024-05-09T10:14:28.042Z,33.75
2024-05-09T10:15:27.337Z,33.75
2024-05-09T10:16:27.477Z,39.38
2024-05-09T10:17:27.557Z,39.38
2024-05-09T10:18:30.220Z,33.75
2024-05-09T10:19:27.851Z,33.75
2024-05-09T10:20:32.369Z,33.75
2024-05-09T10:21:28.064Z,28.12
2024-05-09T10:22:28.255Z,33.75
2024-05-09T10:23:28.402Z,33.75
2024-05-09T10:24:28.513Z,39.38
2024-05-09T10:25:28.737Z,45.00
2024-05-09T10:26:28.663Z,50.62
2024-05-09T10:27:28.877Z,50.62
2024-05-09T10:28:28.919Z,45.00
2024-05-09T10:29:29.065Z,45.00
2024-05-09T10:30:34.331Z,39.38
2024-05-09T10:31:30.395Z,39.38
2024-05-09T10:32:29.719Z,45.00
2024-05-09T10:33:29.746Z,45.00
2024-05-09T10:34:29.815Z,50.62
2024-05-09T10:35:29.914Z,56.25
2024-05-09T10:36:30.000Z,50.62
2024-05-09T10:37:30.233Z,45.00
2024-05-09T16:36:37.229Z,22.50
2024-05-09T16:37:37.335Z,22.50
2024-05-09T16:38:37.463Z,22.50
2024-05-09T16:39:37.665Z,22.50
2024-05-09T16:40:40.537Z,22.50
2024-05-09T16:41:37.856Z,22.50
2024-05-09T16:42:38.023Z,22.50
2024-05-09T16:43:38.297Z,16.88
2024-05-09T16:44:38.209Z,16.88
2024-05-09T16:45:38.518Z,16.88
2024-05-09T16:46:38.478Z,16.88
2024-05-09T16:47:38.732Z,16.88
2024-05-09T16:48:38.892Z,16.88
2024-05-09T16:49:38.917Z,16.88
2024-05-09T16:50:39.154Z,16.88
2024-05-09T16:51:39.176Z,16.88
2024-05-09T16:52:39.274Z,16.88
2024-05-09T16:53:39.488Z,16.88
2024-05-09T16:54:39.619Z,16.88
2024-05-09T16:55:39.717Z,16.88
2024-05-09T16:56:39.857Z,16.88
2024-05-09T16:57:41.052Z,16.88
2024-05-09T16:58:40.137Z,16.88
2024-05-09T16:59:40.259Z,16.88
2024-05-09T17:00:43.071Z,16.88
2024-05-09T17:01:40.634Z,11.25
2024-05-09T17:02:40.749Z,11.25
2024-05-09T17:03:40.995Z,11.25
2024-05-09T17:04:41.035Z,11.25
2024-05-09T17:05:41.514Z,11.25
2024-05-09T17:06:41.196Z,11.25
2024-05-09T17:07:41.306Z,11.25
2024-05-09T17:08:41.441Z,11.25
2024-05-09T17:09:41.642Z,11.25
2024-05-09T17:10:41.934Z,11.25
2024-05-09T17:11:41.929Z,11.25
2024-05-09T17:12:42.029Z,11.25
2024-05-09T17:13:42.779Z,11.25
2024-05-09T17:14:42.247Z,11.25
2024-05-09T17:15:42.387Z,11.25
2024-05-09T17:16:42.547Z,11.25
2024-05-09T17:17:42.702Z,11.25
2024-05-09T17:18:42.877Z,11.25
2024-05-09T17:19:42.891Z,11.25
2024-05-09T17:20:43.007Z,11.25
2024-05-09T17:21:43.176Z,11.25
2024-05-09T17:22:43.351Z,11.25
2024-05-09T17:23:43.448Z,11.25
2024-05-09T17:24:43.607Z,11.25
2024-05-09T17:25:43.758Z,11.25
2024-05-09T17:26:43.890Z,11.25
2024-05-09T17:27:44.098Z,11.25
2024-05-09T17:28:44.177Z,11.25
2024-05-09T17:29:44.276Z,11.25
2024-05-09T17:30:44.456Z,11.25
2024-05-09T17:31:44.508Z,11.25
2024-05-09T17:32:44.698Z,11.25
2024-05-09T17:33:44.945Z,11.25
2024-05-09T17:34:45.078Z,11.25
2024-05-09T17:35:45.043Z,11.25
2024-05-09T17:36:45.334Z,11.25
2024-05-09T17:37:45.338Z,11.25
2024-05-09T17:38:45.476Z,11.25
2024-05-09T17:39:45.685Z,11.25
2024-05-09T17:40:45.769Z,5.62
2024-05-09T17:41:45.896Z,5.62
2024-05-09T17:42:46.084Z,5.62
2024-05-09T17:43:46.150Z,5.62
2024-05-09T17:44:46.255Z,5.62
2024-05-09T17:45:46.512Z,5.62
2024-05-09T17:46:46.581Z,5.62
2024-05-09T17:47:46.876Z,5.62
2024-05-09T17:48:46.893Z,5.62
2024-05-09T17:49:46.896Z,5.62
2024-05-09T17:50:47.007Z,5.62
2024-05-09T17:51:47.233Z,5.62
2024-05-09T17:52:47.356Z,5.62
2024-05-09T17:53:47.397Z,5.62
2024-05-09T17:54:47.608Z,5.62
2024-05-09T17:55:47.664Z,5.62
2024-05-09T17:56:47.784Z,5.62
2024-05-09T17:57:48.064Z,5.62
2024-05-09T17:58:48.064Z,5.62
2024-05-09T17:59:48.188Z,5.62
2024-05-09T18:00:48.476Z,5.62
2024-05-09T18:01:48.582Z,5.62
2024-05-09T18:02:48.669Z,5.62
2024-05-09T18:03:49.819Z,5.62
2024-05-09T18:04:48.926Z,5.62
2024-05-09T18:05:49.055Z,5.62
2024-05-09T18:06:49.193Z,5.62
2024-05-09T18:07:49.268Z,5.62
2024-05-09T18:08:49.313Z,5.62
2024-05-09T18:09:49.521Z,5.62
2024-05-09T18:11:49.812Z,5.62
2024-05-09T18:12:49.919Z,5.62
2024-05-09T18:13:49.968Z,5.62
2024-05-09T18:14:50.094Z,5.62
2024-05-09T18:15:50.277Z,5.62
2024-05-09T18:16:50.409Z,5.62
2024-05-09T18:17:50.671Z,5.62
2024-05-09T18:18:50.796Z,5.62
2024-05-09T18:19:50.814Z,5.62
2024-05-09T18:20:51.043Z,0.00
2024-05-09T18:21:51.058Z,0.00
2024-05-09T18:22:51.225Z,0.00
2024-05-09T18:23:51.320Z,0.00
2024-05-09T18:24:51.551Z,0.00
2024-05-09T18:25:51.593Z,0.00
2024-05-09T18:26:51.738Z,0.00
2024-05-09T18:27:51.895Z,0.00
2024-05-09T18:28:51.947Z,0.00
2024-05-09T18:29:52.105Z,0.00
2024-05-09T18:30:52.304Z,0.00
2024-05-09T18:31:52.338Z,0.00
2024-05-09T18:32:52.610Z,0.00
2024-05-09T18:33:52.809Z,0.00
2024-05-09T18:34:52.934Z,0.00
2024-05-09T18:35:52.865Z,0.00
2024-05-09T18:36:53.099Z,0.00
2024-05-09T18:37:53.142Z,0.00
2024-05-09T18:38:53.296Z,0.00
2024-05-09T18:39:53.486Z,0.00
2024-05-09T18:40:53.664Z,0.00
2024-05-09T18:41:53.764Z,0.00
2024-05-09T18:42:53.918Z,0.00
2024-05-09T18:43:54.081Z,0.00
2024-05-09T18:44:54.168Z,0.00
2024-05-09T18:48:11.039Z,0.00
2024-05-09T18:49:11.177Z,0.00
2024-05-09T18:50:17.257Z,0.00
2024-05-09T18:51:12.321Z,0.00
2024-05-09T18:52:11.726Z,0.00
2024-05-09T18:53:12.789Z,0.00
2024-05-09T18:54:11.715Z,0.00
2024-05-09T18:55:12.089Z,0.00
2024-05-09T18:56:11.960Z,0.00
2024-05-09T18:57:12.122Z,0.00
2024-05-09T18:58:12.301Z,0.00
2024-05-09T18:59:12.392Z,0.00
2024-05-09T19:00:22.977Z,0.00
2024-05-09T19:01:13.773Z,0.00
2024-05-09T19:02:12.883Z,0.00
2024-05-09T19:03:14.286Z,0.00
2024-05-09T19:04:13.342Z,0.00
2024-05-09T19:05:13.406Z,0.00
2024-05-09T19:06:13.351Z,0.00
2024-05-09T19:07:13.653Z,0.00
2024-05-09T19:08:13.666Z,0.00
2024-05-09T19:09:13.725Z,0.00
2024-05-09T19:10:22.243Z,0.00
2024-05-09T19:11:15.055Z,0.00
2024-05-09T19:12:14.127Z,0.00
2024-05-09T19:13:14.958Z,0.00
2024-05-09T19:14:14.420Z,0.00
2024-05-09T19:15:14.548Z,0.00
2024-05-09T19:16:14.873Z,0.00
2024-05-09T19:17:15.846Z,0.00
2024-05-09T19:18:15.587Z,0.00
2024-05-09T19:20:24.896Z,0.00
2024-05-09T19:21:17.303Z,0.00
2024-05-09T19:22:15.492Z,0.00
2024-05-09T19:23:15.637Z,0.00
2024-05-09T19:24:15.718Z,0.00
2024-05-09T19:25:15.948Z,0.00
2024-05-09T19:26:15.978Z,0.00
2024-05-09T19:27:17.097Z,0.00
2024-05-09T19:28:16.279Z,0.00
2024-05-09T19:29:16.353Z,0.00